createdAt,value
2023-01-28T00:02:00.584Z,4.10
2023-01-28T00:04:28.409Z,3.60
2023-01-28T00:06:56.720Z,3.40
2023-01-28T00:09:24.730Z,4.70
2023-01-28T00:11:52.982Z,6.70
2023-01-28T00:14:20.913Z,4.60
2023-01-28T00:16:48.835Z,5.70
2023-01-28T00:19:16.819Z,3.80
2023-01-28T00:21:44.706Z,4.20
2023-01-28T00:24:12.698Z,3.10
2023-01-28T00:26:41.117Z,3.40
2023-01-28T00:29:09.135Z,3.80
2023-01-28T00:31:37.893Z,3.50
2023-01-28T00:34:06.202Z,3.80
2023-01-28T00:36:39.296Z,3.50
2023-01-28T00:39:07.346Z,2.70
2023-01-28T00:41:36.250Z,3.40
2023-01-28T00:44:04.257Z,4.60
2023-01-28T00:46:32.381Z,3.40
2023-01-28T00:49:00.504Z,3.10
2023-01-28T00:51:28.464Z,3.40
2023-01-28T00:53:56.400Z,3.50
2023-01-28T00:56:24.948Z,3.40
2023-01-28T00:58:52.974Z,3.20
2023-01-28T01:01:24.350Z,3.60
2023-01-28T01:04:03.329Z,3.00
2023-01-28T01:06:35.383Z,3.70
2023-01-28T01:09:10.757Z,3.90
2023-01-28T01:11:39.102Z,3.30
2023-01-28T01:14:07.307Z,3.40
2023-01-28T01:16:36.388Z,3.40
2023-01-28T01:19:04.543Z,3.80
2023-01-28T01:21:32.370Z,4.00
2023-01-28T01:24:00.447Z,3.70
2023-01-28T01:26:28.490Z,3.50
2023-01-28T01:28:58.651Z,4.00
2023-01-28T01:31:26.988Z,3.60
2023-01-28T01:33:54.846Z,3.40
2023-01-28T01:36:23.855Z,3.50
2023-01-28T01:38:56.366Z,3.80
2023-01-28T01:41:29.124Z,3.60
2023-01-28T01:44:02.597Z,4.30
2023-01-28T01:46:43.904Z,3.70
2023-01-28T01:49:26.020Z,3.50
2023-01-28T01:52:13.436Z,3.80
2023-01-28T01:54:45.028Z,3.70
2023-01-28T01:57:21.374Z,3.60
2023-01-28T01:59:49.542Z,3.40
2023-01-28T02:02:17.724Z,3.60
2023-01-28T02:04:45.814Z,3.80
2023-01-28T02:07:19.407Z,3.80
2023-01-28T02:09:47.666Z,3.70
2023-01-28T02:12:23.319Z,4.20
2023-01-28T02:14:56.707Z,3.70
2023-01-28T02:17:25.572Z,3.50
2023-01-28T02:20:00.937Z,3.80
2023-01-28T02:25:09.453Z,3.50
2023-01-28T02:28:07.145Z,4.20
2023-01-28T02:31:05.343Z,4.70
2023-01-28T02:33:52.625Z,3.90
2023-01-28T02:36:36.483Z,3.70
2023-01-28T02:39:13.508Z,3.90
2023-01-28T02:42:07.610Z,4.20
2023-01-28T02:44:35.700Z,4.20
2023-01-28T02:47:29.237Z,4.00
2023-01-28T02:49:59.941Z,4.10
2023-01-28T02:52:51.223Z,3.30
2023-01-28T02:55:59.082Z,3.20
2023-01-28T02:58:48.119Z,4.00
2023-01-28T03:01:28.661Z,4.20
2023-01-28T03:04:02.665Z,4.50
2023-01-28T03:06:40.089Z,4.40
2023-01-28T03:09:27.275Z,4.40
2023-01-28T03:12:23.885Z,4.10
2023-01-28T03:15:35.717Z,4.20
2023-01-28T03:18:37.114Z,5.10
2023-01-28T03:21:39.368Z,4.70
2023-01-28T03:24:32.161Z,4.80
2023-01-28T03:27:29.836Z,4.90
2023-01-28T03:30:30.420Z,4.80
2023-01-28T03:33:18.650Z,4.50
2023-01-28T03:36:06.615Z,4.90
2023-01-28T03:38:42.160Z,4.70
2023-01-28T03:41:12.685Z,4.30
2023-01-28T03:43:41.794Z,4.60
2023-01-28T03:46:10.013Z,5.10
2023-01-28T03:48:38.077Z,3.90
2023-01-28T03:51:07.020Z,4.00
2023-01-28T03:53:35.044Z,4.00
2023-01-28T03:56:02.998Z,4.70
2023-01-28T03:58:53.040Z,4.20
2023-01-28T04:01:21.508Z,4.00
2023-01-28T04:03:49.907Z,4.40
2023-01-28T04:06:26.592Z,4.10
2023-01-28T04:09:22.215Z,4.10
2023-01-28T04:11:56.216Z,3.90
2023-01-28T04:14:29.173Z,3.90
2023-01-28T04:17:11.213Z,4.40
2023-01-28T04:19:40.536Z,7.40
2023-01-28T04:22:12.155Z,4.80
2023-01-28T04:24:41.727Z,4.60
2023-01-28T04:27:10.046Z,3.70
2023-01-28T04:29:38.117Z,3.70
2023-01-28T04:32:28.838Z,4.00
2023-01-28T04:35:11.586Z,3.40
2023-01-28T04:38:09.004Z,3.90
2023-01-28T04:40:52.437Z,3.30
2023-01-28T04:43:29.514Z,3.40
2023-01-28T04:46:20.090Z,3.40
2023-01-28T04:48:58.451Z,3.40
2023-01-28T04:51:52.904Z,2.90
2023-01-28T04:54:36.403Z,3.20
2023-01-28T04:57:05.988Z,3.60
2023-01-28T04:59:36.357Z,3.80
2023-01-28T05:02:04.494Z,2.70
2023-01-28T05:04:33.274Z,2.10
2023-01-28T05:07:02.695Z,2.60
2023-01-28T05:09:33.878Z,2.30
2023-01-28T05:12:01.996Z,2.00
2023-01-28T05:14:32.407Z,2.30
2023-01-28T05:17:05.847Z,2.50
2023-01-28T05:19:34.015Z,6.80
2023-01-28T05:22:03.372Z,3.80
2023-01-28T05:24:45.935Z,3.50
2023-01-28T05:27:15.183Z,2.40
2023-01-28T05:29:43.314Z,133.60
2023-01-28T05:32:11.238Z,17.30
2023-01-28T05:34:39.142Z,3.30
2023-01-28T05:37:13.526Z,2.70
2023-01-28T05:39:41.478Z,2.80
2023-01-28T05:42:10.593Z,3.70
2023-01-28T05:44:44.066Z,5.90
2023-01-28T05:47:24.901Z,2.40
2023-01-28T05:50:21.801Z,3.40
2023-01-28T05:53:25.091Z,12.90
2023-01-28T05:55:54.363Z,2.30
2023-01-28T05:58:23.883Z,2.40
2023-01-28T06:00:55.484Z,3.20
2023-01-28T06:03:24.561Z,2.30
2023-01-28T06:05:52.975Z,3.10
2023-01-28T06:08:21.059Z,3.00
2023-01-28T06:10:49.355Z,3.00
2023-01-28T06:13:17.401Z,3.30
2023-01-28T06:16:04.959Z,4.20
2023-01-28T06:18:59.532Z,2.90
2023-01-28T06:21:30.070Z,3.20
2023-01-28T06:23:59.362Z,3.80
2023-01-28T06:26:27.244Z,5.00
2023-01-28T06:28:55.139Z,7.20
2023-01-28T06:31:23.072Z,3.40
2023-01-28T06:33:51.059Z,3.60
2023-01-28T06:36:18.912Z,4.00
2023-01-28T06:38:46.933Z,4.90
2023-01-28T06:41:14.801Z,5.80
2023-01-28T06:43:42.791Z,6.80
2023-01-28T06:46:11.140Z,3.70
2023-01-28T06:48:39.231Z,7.50
2023-01-28T06:51:07.282Z,9.20
2023-01-28T06:53:35.392Z,3.90
2023-01-28T06:56:03.693Z,4.20
2023-01-28T06:58:31.512Z,5.50
2023-01-28T07:00:59.426Z,4.60
2023-01-28T07:03:27.417Z,3.70
2023-01-28T07:05:55.326Z,4.40
2023-01-28T07:08:23.493Z,3.10
2023-01-28T07:10:51.463Z,3.80
2023-01-28T07:13:19.342Z,3.50
2023-01-28T07:15:47.276Z,3.30
2023-01-28T07:18:15.163Z,3.70
2023-01-28T07:20:43.647Z,4.10
2023-01-28T07:23:12.456Z,3.80
2023-01-28T07:25:40.410Z,4.40
2023-01-28T07:28:08.486Z,3.50
2023-01-28T07:30:36.393Z,3.50
2023-01-28T07:33:04.627Z,3.20
2023-01-28T07:35:32.915Z,4.50
2023-01-28T07:38:01.535Z,4.60
2023-01-28T07:40:30.033Z,4.00
2023-01-28T07:42:57.983Z,3.80
2023-01-28T07:45:30.522Z,4.30
2023-01-28T07:48:05.899Z,3.50
2023-01-28T07:50:36.290Z,4.10
2023-01-28T07:53:06.471Z,4.00
2023-01-28T07:55:38.218Z,3.90
2023-01-28T07:58:07.697Z,3.90
2023-01-28T08:00:37.380Z,4.40
2023-01-28T08:03:08.230Z,3.60
2023-01-28T08:05:42.006Z,4.00
2023-01-28T08:08:10.993Z,3.70
2023-01-28T08:10:39.304Z,17.10
2023-01-28T08:13:07.759Z,7.60
2023-01-28T08:15:36.985Z,17.60
2023-01-28T08:18:06.925Z,5.80
2023-01-28T08:20:35.193Z,4.20
2023-01-28T08:23:15.606Z,8.90
2023-01-28T08:25:43.870Z,7.80
2023-01-28T08:28:13.244Z,3.90
2023-01-28T08:30:42.260Z,3.80
2023-01-28T08:33:12.765Z,8.70
2023-01-28T08:35:41.259Z,10.50
2023-01-28T08:38:11.250Z,4.10
2023-01-28T08:40:39.149Z,8.80
2023-01-28T08:43:08.152Z,6.80
2023-01-28T08:45:36.459Z,6.70
2023-01-28T08:48:06.357Z,3.70
2023-01-28T08:50:37.453Z,2.80
2023-01-28T08:53:08.302Z,12.50
2023-01-28T08:55:36.453Z,11.00
2023-01-28T08:58:11.371Z,6.10
2023-01-28T09:00:40.716Z,2.10
2023-01-28T09:03:09.312Z,2.20
2023-01-28T09:05:38.927Z,1.60
2023-01-28T09:08:12.729Z,2.00
2023-01-28T09:10:42.121Z,1.70
2023-01-28T09:13:12.886Z,2.00
2023-01-28T09:15:41.205Z,1.60
2023-01-28T09:18:09.163Z,1.60
2023-01-28T09:20:38.276Z,1.80
2023-01-28T09:23:06.967Z,1.80
2023-01-28T09:25:36.417Z,2.10
2023-01-28T09:28:04.650Z,2.50
2023-01-28T09:30:35.350Z,1.80
2023-01-28T09:33:05.108Z,2.50
2023-01-28T09:35:34.571Z,1.90
2023-01-28T09:38:02.484Z,6.00
2023-01-28T09:40:30.525Z,3.10
2023-01-28T09:43:25.938Z,3.40
2023-01-28T09:45:58.425Z,3.60
2023-01-28T09:48:33.871Z,2.90
2023-01-28T09:51:02.048Z,2.90
2023-01-28T09:53:36.934Z,3.00
2023-01-28T09:56:15.266Z,6.00
2023-01-28T09:58:43.378Z,4.50
2023-01-28T10:01:32.475Z,6.80
2023-01-28T10:04:09.603Z,4.20
2023-01-28T10:07:06.281Z,4.90
2023-01-28T10:09:51.445Z,6.10
2023-01-28T10:12:58.777Z,17.50
2023-01-28T10:15:50.499Z,58.40
2023-01-28T10:18:29.251Z,105.90
2023-01-28T10:21:07.854Z,41.90
2023-01-28T10:23:46.751Z,30.80
2023-01-28T10:26:24.016Z,20.30
2023-01-28T10:28:58.532Z,7.50
2023-01-28T10:31:37.279Z,4.00
2023-01-28T10:34:05.401Z,10.90
2023-01-28T10:36:33.842Z,13.00
2023-01-28T10:39:01.765Z,11.50
2023-01-28T10:41:29.897Z,37.10
2023-01-28T10:43:58.132Z,12.00
2023-01-28T10:46:33.713Z,22.10
2023-01-28T10:49:11.898Z,12.90
2023-01-28T10:51:42.968Z,25.50
2023-01-28T10:54:23.832Z,22.80
2023-01-28T10:57:03.173Z,15.60
2023-01-28T10:59:41.727Z,6.10
2023-01-28T11:02:33.140Z,5.30
2023-01-28T11:05:23.075Z,7.70
2023-01-28T11:07:51.779Z,6.40
2023-01-28T11:10:38.300Z,5.10
2023-01-28T11:13:14.900Z,4.80
2023-01-28T11:15:54.136Z,4.90
2023-01-28T11:18:46.754Z,4.80
2023-01-28T11:21:19.753Z,5.10
2023-01-28T11:23:59.400Z,4.60
2023-01-28T11:26:32.313Z,4.70
2023-01-28T11:29:00.348Z,6.30
2023-01-28T11:31:29.057Z,5.30
2023-01-28T11:34:03.143Z,5.20
2023-01-28T11:36:33.244Z,5.00
2023-01-28T11:39:20.402Z,5.00
2023-01-28T11:41:48.677Z,4.70
2023-01-28T11:44:21.464Z,4.60
2023-01-28T11:47:04.563Z,5.20
2023-01-28T11:49:49.131Z,4.60
2023-01-28T11:52:48.633Z,6.80
2023-01-28T11:55:34.522Z,8.80
2023-01-28T11:58:27.646Z,8.50
2023-01-28T12:01:22.110Z,10.70
2023-01-28T12:04:18.243Z,7.80
2023-01-28T12:06:51.842Z,11.10
2023-01-28T12:09:32.309Z,14.50
2023-01-28T12:12:26.688Z,10.80
2023-01-28T12:15:08.809Z,10.50
2023-01-28T12:17:51.639Z,12.60
2023-01-28T12:20:39.116Z,7.60
2023-01-28T12:23:39.175Z,11.00
2023-01-28T12:26:16.620Z,31.90
2023-01-28T12:28:47.486Z,8.60
2023-01-28T12:31:45.110Z,7.10
2023-01-28T12:35:07.954Z,13.60
2023-01-28T12:37:57.384Z,10.40
2023-01-28T12:40:34.801Z,13.50
2023-01-28T12:43:06.178Z,13.50
2023-01-28T12:45:41.208Z,10.90
2023-01-28T12:48:24.353Z,7.20
2023-01-28T12:51:00.285Z,8.20
2023-01-28T12:53:49.864Z,6.30
2023-01-28T12:56:37.969Z,6.10
2023-01-28T12:59:33.979Z,14.10
2023-01-28T13:02:14.144Z,36.80
2023-01-28T13:05:02.403Z,3.30
2023-01-28T13:07:44.440Z,3.50
2023-01-28T13:10:37.219Z,6.30
2023-01-28T13:13:05.971Z,4.20
2023-01-28T13:15:40.767Z,2.90
2023-01-28T13:18:33.407Z,5.80
2023-01-28T13:21:03.314Z,26.00
2023-01-28T13:23:31.267Z,12.90
2023-01-28T13:26:11.294Z,7.50
2023-01-28T13:28:39.421Z,24.30
2023-01-28T13:31:17.845Z,25.10
2023-01-28T13:34:00.757Z,10.90
2023-01-28T13:36:37.400Z,6.60
2023-01-28T13:39:17.080Z,15.10
2023-01-28T13:41:49.569Z,6.60
2023-01-28T13:44:27.825Z,6.50
2023-01-28T13:47:08.458Z,4.60
2023-01-28T13:49:46.186Z,4.30
2023-01-28T13:52:24.558Z,36.00
2023-01-28T13:54:57.638Z,95.10
2023-01-28T13:57:43.728Z,16.70
2023-01-28T14:00:29.436Z,12.60
2023-01-28T14:03:34.978Z,85.60
2023-01-28T14:06:21.987Z,84.50
2023-01-28T14:09:26.638Z,4.60
2023-01-28T14:12:25.766Z,4.50
2023-01-28T14:15:24.745Z,6.40
2023-01-28T14:17:56.129Z,7.60
2023-01-28T14:20:39.730Z,3.50
2023-01-28T14:23:17.714Z,26.70
2023-01-28T14:26:05.883Z,17.70
2023-01-28T14:29:03.487Z,17.40
2023-01-28T14:31:34.484Z,17.20
2023-01-28T14:34:09.479Z,14.30
2023-01-28T14:36:40.632Z,7.50
2023-01-28T14:39:17.922Z,20.00
2023-01-28T14:41:48.815Z,8.80
2023-01-28T14:44:36.863Z,11.10
2023-01-28T14:47:10.759Z,7.60
2023-01-28T14:50:02.819Z,6.80
2023-01-28T14:52:43.742Z,4.60
2023-01-28T14:55:29.253Z,4.30
2023-01-28T14:58:00.830Z,3.30
2023-01-28T15:00:32.884Z,3.70
2023-01-28T15:03:01.848Z,3.30
2023-01-28T15:05:31.763Z,3.60
2023-01-28T15:08:00.804Z,3.10
2023-01-28T15:10:33.046Z,3.40
2023-01-28T15:13:16.879Z,5.00
2023-01-28T15:15:49.927Z,5.90
2023-01-28T15:18:29.471Z,6.30
2023-01-28T15:20:59.738Z,14.50
2023-01-28T15:23:50.014Z,31.00
2023-01-28T15:26:22.418Z,67.20
2023-01-28T15:28:51.493Z,23.70
2023-01-28T15:31:32.739Z,20.70
2023-01-28T15:34:11.093Z,28.80
2023-01-28T15:36:39.491Z,22.40
2023-01-28T15:39:15.494Z,13.80
2023-01-28T15:44:29.281Z,221.60
2023-01-28T15:47:02.303Z,239.90
2023-01-28T15:49:42.318Z,85.40
2023-01-28T15:52:10.762Z,385.10
2023-01-28T15:54:44.511Z,195.70
2023-01-28T15:57:27.447Z,107.20
2023-01-28T16:00:18.545Z,68.00
2023-01-28T16:02:52.696Z,43.50
2023-01-28T16:05:34.803Z,173.50
2023-01-28T16:08:08.324Z,104.90
2023-01-28T16:10:36.746Z,52.00
2023-01-28T16:13:10.663Z,62.80
2023-01-28T16:15:39.430Z,225.20
2023-01-28T16:18:07.405Z,141.60
2023-01-28T16:20:35.478Z,73.00
2023-01-28T16:23:04.408Z,95.00
2023-01-28T16:25:34.994Z,190.80
2023-01-28T16:28:03.537Z,102.10
2023-01-28T16:30:31.457Z,58.10
2023-01-28T16:33:00.468Z,40.10
2023-01-28T16:35:47.224Z,35.60
2023-01-28T16:38:19.003Z,90.40
2023-01-28T16:40:48.033Z,251.50
2023-01-28T16:43:17.222Z,330.70
2023-01-28T16:45:46.298Z,80.90
2023-01-28T16:48:14.383Z,66.60
2023-01-28T16:50:43.587Z,74.30
2023-01-28T16:53:23.033Z,54.20
2023-01-28T16:55:52.145Z,90.00
2023-01-28T16:58:25.082Z,128.10
2023-01-28T17:00:53.421Z,83.80
2023-01-28T17:03:22.115Z,148.60
2023-01-28T17:05:50.221Z,128.70
2023-01-28T17:08:18.237Z,171.90
2023-01-28T17:10:52.269Z,302.00
2023-01-28T17:13:20.891Z,88.40
2023-01-28T17:15:48.976Z,61.80
2023-01-28T17:18:17.156Z,29.70
2023-01-28T17:20:45.096Z,210.80
2023-01-28T17:23:16.073Z,94.30
2023-01-28T17:25:44.157Z,121.70
2023-01-28T17:28:12.105Z,156.60
2023-01-28T17:30:41.810Z,152.30
2023-01-28T17:33:10.027Z,345.80
2023-01-28T17:35:38.112Z,150.40
2023-01-28T17:38:06.111Z,404.00
2023-01-28T17:40:34.065Z,268.70
2023-01-28T17:43:01.866Z,138.30
2023-01-28T17:45:33.818Z,357.20
2023-01-28T17:48:02.033Z,53.30
2023-01-28T17:50:30.022Z,489.00
2023-01-28T17:52:58.074Z,172.30
2023-01-28T17:55:26.604Z,148.10
2023-01-28T17:57:54.592Z,101.00
2023-01-28T18:00:22.877Z,108.60
2023-01-28T18:02:52.547Z,120.90
2023-01-28T18:05:21.115Z,66.60
2023-01-28T18:07:50.492Z,431.10
2023-01-28T18:10:19.190Z,172.70
2023-01-28T18:12:47.081Z,102.90
2023-01-28T18:15:15.265Z,49.00
2023-01-28T18:17:43.404Z,60.00
2023-01-28T18:20:11.730Z,38.10
2023-01-28T18:22:39.637Z,70.70
2023-01-28T18:25:08.198Z,68.90
2023-01-28T18:27:36.152Z,95.00
2023-01-28T18:30:04.531Z,117.20
2023-01-28T18:32:32.465Z,84.80
2023-01-28T18:35:02.362Z,181.10
2023-01-28T18:37:30.212Z,203.60
2023-01-28T18:39:58.371Z,144.90
2023-01-28T18:42:26.421Z,134.50
2023-01-28T18:44:54.349Z,82.30
2023-01-28T18:47:22.217Z,252.80
2023-01-28T18:49:50.174Z,175.30
2023-01-28T18:52:18.086Z,120.00
2023-01-28T18:54:46.326Z,95.60
2023-01-28T18:57:14.262Z,50.10
2023-01-28T18:59:42.206Z,68.40
2023-01-28T19:02:13.864Z,68.90
2023-01-28T19:04:41.789Z,170.90
2023-01-28T19:07:11.789Z,46.00
2023-01-28T19:09:39.876Z,44.30
2023-01-28T19:12:08.259Z,37.10
2023-01-28T19:14:36.306Z,44.30
2023-01-28T19:17:04.309Z,47.60
2023-01-28T19:19:32.495Z,63.50
2023-01-28T19:22:00.522Z,76.40
2023-01-28T19:24:28.780Z,62.10
2023-01-28T19:26:57.045Z,47.80
2023-01-28T19:29:27.363Z,62.10
2023-01-28T19:31:55.609Z,50.10
2023-01-28T19:34:23.640Z,104.70
2023-01-28T19:36:51.700Z,78.00
2023-01-28T19:39:19.588Z,88.60
2023-01-28T19:41:47.495Z,50.70
2023-01-28T19:44:15.453Z,113.40
2023-01-28T19:46:43.592Z,45.50
2023-01-28T19:49:12.706Z,74.90
2023-01-28T19:51:40.933Z,39.20
2023-01-28T19:54:08.841Z,40.00
2023-01-28T19:56:37.678Z,41.10
2023-01-28T19:59:06.071Z,41.20
2023-01-28T20:01:36.049Z,40.90
2023-01-28T20:04:04.904Z,43.90
2023-01-28T20:06:35.175Z,39.20
2023-01-28T20:09:09.146Z,25.20
2023-01-28T20:11:37.364Z,33.10
2023-01-28T20:14:05.302Z,43.10
2023-01-28T20:16:35.148Z,31.00
2023-01-28T20:19:12.745Z,23.30
2023-01-28T20:21:40.916Z,24.70
2023-01-28T20:24:12.248Z,26.30
2023-01-28T20:26:41.907Z,26.00
2023-01-28T20:29:13.542Z,29.30
2023-01-28T20:31:42.612Z,31.30
2023-01-28T20:34:16.070Z,27.00
2023-01-28T20:36:44.471Z,24.70
2023-01-28T20:39:13.631Z,23.60
2023-01-28T20:41:41.531Z,25.70
2023-01-28T20:44:09.702Z,22.30
2023-01-28T20:46:38.996Z,29.80
2023-01-28T20:49:07.154Z,45.60
2023-01-28T20:51:36.168Z,26.20
2023-01-28T20:54:04.278Z,35.40
2023-01-28T20:56:32.747Z,26.90
2023-01-28T20:59:04.284Z,26.80
2023-01-28T21:01:35.664Z,27.40
2023-01-28T21:04:05.659Z,34.20
2023-01-28T21:06:33.688Z,29.40
2023-01-28T21:09:02.067Z,33.60
2023-01-28T21:11:30.228Z,26.10
2023-01-28T21:13:58.599Z,25.30
2023-01-28T21:16:27.068Z,21.80
2023-01-28T21:18:54.953Z,25.80
2023-01-28T21:21:25.343Z,27.70
2023-01-28T21:23:59.373Z,23.30
2023-01-28T21:26:28.341Z,23.90
2023-01-28T21:28:56.600Z,21.80
2023-01-28T21:31:26.001Z,21.30
2023-01-28T21:33:56.711Z,22.40
2023-01-28T21:36:26.111Z,22.50
2023-01-28T21:38:57.078Z,23.00
2023-01-28T21:41:25.753Z,25.20
2023-01-28T21:43:57.283Z,23.80
2023-01-28T21:46:28.149Z,23.40
2023-01-28T21:48:57.884Z,28.00
2023-01-28T21:51:38.054Z,39.40
2023-01-28T21:54:12.992Z,29.40
2023-01-28T21:56:43.996Z,27.90
2023-01-28T21:59:27.977Z,26.80
2023-01-28T22:02:00.546Z,25.30
2023-01-28T22:04:46.933Z,73.80
2023-01-28T22:07:20.124Z,61.90
2023-01-28T22:09:48.664Z,58.00
2023-01-28T22:12:16.867Z,66.50
2023-01-28T22:14:46.935Z,33.70
2023-01-28T22:17:18.697Z,37.80
2023-01-28T22:19:48.252Z,26.30
2023-01-28T22:22:16.972Z,54.70
2023-01-28T22:24:45.099Z,37.20
2023-01-28T22:27:14.116Z,35.90
2023-01-28T22:29:42.050Z,22.20
2023-01-28T22:32:09.880Z,26.70
2023-01-28T22:34:37.899Z,29.60
2023-01-28T22:37:07.339Z,28.20
2023-01-28T22:39:35.186Z,20.90
2023-01-28T22:42:03.428Z,24.90
2023-01-28T22:44:31.246Z,21.00
2023-01-28T22:46:59.324Z,20.50
2023-01-28T22:49:27.327Z,20.10
2023-01-28T22:51:55.221Z,17.80
2023-01-28T22:54:23.089Z,17.30
2023-01-28T22:56:50.990Z,17.40
2023-01-28T22:59:18.899Z,17.80
2023-01-28T23:01:46.888Z,18.60
2023-01-28T23:04:14.896Z,17.10
2023-01-28T23:06:42.982Z,21.40
2023-01-28T23:09:10.895Z,18.00
2023-01-28T23:11:38.930Z,18.80
2023-01-28T23:14:25.566Z,24.00
2023-01-28T23:17:12.146Z,23.30
2023-01-28T23:19:58.842Z,25.10
2023-01-28T23:22:52.649Z,25.10
2023-01-28T23:25:23.824Z,21.20
2023-01-28T23:27:51.782Z,29.70
2023-01-28T23:30:25.156Z,15.10
2023-01-28T23:32:58.306Z,21.40
2023-01-28T23:35:26.189Z,18.90
2023-01-28T23:37:54.849Z,15.90
2023-01-28T23:40:24.692Z,14.30
2023-01-28T23:42:54.219Z,13.70
2023-01-28T23:45:22.503Z,14.50
2023-01-28T23:47:50.566Z,15.50
2023-01-28T23:50:19.301Z,18.00
2023-01-28T23:52:47.341Z,13.90
2023-01-28T23:55:16.078Z,12.60
2023-01-28T23:57:43.914Z,13.20
